Terminal Aerodrome Forecast
Issued by NWS

Home | Current Version | Previous Version | Text Only | Print | Product List | Glossary On
Versions: 1 2 3 4 5 6 7 8 9 10 11 12 13 14 15 16 17 18 19 20 21 22 23
000
FTUS43 KGRB 011700
TAFMTW
TAF
KMTW 011738Z 0118/0218 04014G28KT 1 1/2SM -SN SCT014 OVC030
      TEMPO 0118/0122 3/4SM -SN BLSN BKN014
     FM012200 03018G28KT 5SM -SN BLSN BKN030
     FM020400 01015G23KT P6SM -SHSN SCT035 BKN070
     FM020700 35013G20KT P6SM SCT070 BKN120
     FM021500 34010KT P6SM SKC=

USA.gov is the U.S. government's official web portal to all federal, state and local government web resources and services.